Time;durP1;ratioP1;P1;durP2;ratioP2;P2;SDS_P1;SDS_P2;PMS_P1;PMS_P2;Temp;Humidity;BMP_temperature;BMP_pressure;BME280_temperature;BME280_humidity;BME280_pressure;Samples;Min_cycle;Max_cycle;Signal;HPM_P1;HPM_P2
2022/07/29 00:01:19;;;;;;;4.70;1.53;;;18.90;99.90;;;;;;5082161;28;20206;-43
2022/07/29 00:03:45;;;;;;;4.73;1.13;;;18.90;99.90;;;;;;5081530;28;20278;-44
2022/07/29 00:06:10;;;;;;;4.10;1.37;;;18.90;99.90;;;;;;5083680;28;20236;-44
2022/07/29 00:08:36;;;;;;;3.83;1.30;;;18.90;99.90;;;;;;5084988;28;20183;-43
2022/07/29 00:11:01;;;;;;;4.83;1.20;;;18.90;99.90;;;;;;5084712;28;20236;-44
2022/07/29 00:13:27;;;;;;;4.27;0.80;;;18.90;99.90;;;;;;5085325;28;20258;-43
2022/07/29 00:15:53;;;;;;;3.13;1.23;;;18.80;99.90;;;;;;5084461;28;20206;-43
2022/07/29 00:18:18;;;;;;;3.30;1.00;;;18.90;99.90;;;;;;5087188;28;20187;-42
2022/07/29 00:20:44;;;;;;;4.13;1.20;;;18.80;99.90;;;;;;5086241;28;20224;-44
2022/07/29 00:23:09;;;;;;;5.30;1.03;;;18.80;99.90;;;;;;5085517;28;20206;-43
2022/07/29 00:25:35;;;;;;;5.37;1.33;;;18.80;99.90;;;;;;5085377;28;20254;-44
2022/07/29 00:28:00;;;;;;;3.27;1.17;;;18.80;99.90;;;;;;5083943;28;20175;-44
2022/07/29 00:30:26;;;;;;;6.23;1.70;;;18.80;99.90;;;;;;5084989;28;20188;-44
2022/07/29 00:32:52;;;;;;;8.93;1.30;;;18.80;99.90;;;;;;5087236;28;20176;-43
2022/07/29 00:38:02;;;;;;;3.83;1.13;;;18.70;99.90;;;;;;5082572;28;20171;-43
2022/07/29 00:40:27;;;;;;;4.23;1.43;;;18.70;99.90;;;;;;5082758;28;20199;-44
2022/07/29 00:42:53;;;;;;;6.03;1.47;;;18.70;99.90;;;;;;5083934;28;20192;-44
2022/07/29 00:45:19;;;;;;;4.90;1.30;;;18.60;99.90;;;;;;5083562;28;20179;-42
2022/07/29 00:47:45;;;;;;;3.13;1.20;;;18.60;99.90;;;;;;5083052;28;20184;-44
2022/07/29 00:50:12;;;;;;;2.70;1.30;;;18.50;99.90;;;;;;5082927;28;20680;-44
2022/07/29 00:52:40;;;;;;;3.83;1.20;;;18.50;99.90;;;;;;5083326;28;20194;-44
2022/07/29 00:55:08;;;;;;;5.10;1.00;;;18.40;99.90;;;;;;5083012;28;20667;-43
2022/07/29 00:57:35;;;;;;;3.07;1.30;;;18.40;99.90;;;;;;5080814;28;20184;-43
2022/07/29 01:00:03;;;;;;;10.23;1.27;;;18.40;99.90;;;;;;5078298;28;20206;-44
2022/07/29 01:02:28;;;;;;;4.37;1.20;;;18.30;99.90;;;;;;5077329;28;20214;-44
2022/07/29 01:04:56;;;;;;;2.63;1.23;;;18.30;99.90;;;;;;5078478;28;20619;-43
2022/07/29 01:07:23;;;;;;;4.37;1.40;;;18.30;99.90;;;;;;5078596;28;20523;-43
2022/07/29 01:09:48;;;;;;;4.83;1.27;;;18.30;99.90;;;;;;5078600;28;20267;-42
2022/07/29 01:12:18;;;;;;;2.80;1.23;;;18.30;99.90;;;;;;5075824;28;20655;-39
2022/07/29 01:14:45;;;;;;;3.63;1.10;;;18.20;99.90;;;;;;5075112;28;20195;-40
2022/07/29 01:17:17;;;;;;;5.07;1.10;;;18.20;99.90;;;;;;5075446;28;20182;-41
2022/07/29 01:19:55;;;;;;;3.27;1.20;;;18.20;99.90;;;;;;5075384;28;20207;-39
2022/07/29 01:22:57;;;;;;;2.00;1.10;;;18.20;99.90;;;;;;5075082;28;20248;-40
2022/07/29 01:25:43;;;;;;;3.60;1.27;;;18.20;99.90;;;;;;5075359;28;20172;-38
2022/07/29 01:28:31;;;;;;;4.90;1.37;;;18.10;99.90;;;;;;5073920;28;20175;-41
2022/07/29 01:30:58;;;;;;;3.97;0.93;;;18.10;99.90;;;;;;5075137;28;20274;-40
2022/07/29 01:36:14;;;;;;;1.50;1.20;;;18.00;99.90;;;;;;5075549;28;20747;-37
2022/07/29 01:38:42;;;;;;;6.27;1.70;;;18.00;99.90;;;;;;5075159;28;20604;-39
2022/07/29 01:41:12;;;;;;;3.70;1.13;;;18.00;99.90;;;;;;5074591;28;20204;-40
2022/07/29 01:44:14;;;;;;;5.07;1.17;;;18.00;99.90;;;;;;5075254;28;20329;-41
2022/07/29 01:46:48;;;;;;;7.27;1.50;;;18.00;99.90;;;;;;5073015;28;20187;-41
2022/07/29 01:49:18;;;;;;;6.40;1.80;;;18.00;99.90;;;;;;5074982;28;20171;-38
2022/07/29 01:51:50;;;;;;;3.07;1.50;;;18.00;99.90;;;;;;5074541;28;20254;-41
2022/07/29 01:54:30;;;;;;;2.37;1.30;;;18.00;99.90;;;;;;5074780;28;20229;-40
2022/07/29 01:56:58;;;;;;;4.20;1.67;;;18.00;99.90;;;;;;5074849;28;20217;-42
2022/07/29 01:59:25;;;;;;;2.77;1.43;;;18.00;99.90;;;;;;5073975;28;20183;-41
2022/07/29 02:01:53;;;;;;;3.60;1.60;;;18.00;99.90;;;;;;5074241;28;20203;-40
2022/07/29 02:04:20;;;;;;;5.77;1.50;;;18.00;99.90;;;;;;5074533;28;20176;-40
2022/07/29 02:06:51;;;;;;;9.03;2.07;;;18.10;99.90;;;;;;5074548;28;20230;-39
2022/07/29 02:09:19;;;;;;;3.40;1.57;;;18.10;99.90;;;;;;5075083;28;20243;-41
2022/07/29 02:11:51;;;;;;;6.13;1.30;;;18.10;99.90;;;;;;5073431;28;20179;-38
2022/07/29 02:14:19;;;;;;;2.87;1.20;;;18.10;99.90;;;;;;5074448;28;20270;-39
2022/07/29 02:16:49;;;;;;;7.27;1.60;;;18.10;99.90;;;;;;5074711;28;20248;-40
2022/07/29 02:19:17;;;;;;;6.03;1.60;;;18.00;99.90;;;;;;5074341;28;20171;-40
2022/07/29 02:21:44;;;;;;;3.27;1.40;;;18.10;99.90;;;;;;5075877;28;20203;-40
2022/07/29 02:24:11;;;;;;;7.87;1.03;;;18.10;99.90;;;;;;5076439;28;20628;-40
2022/07/29 02:26:39;;;;;;;2.77;1.27;;;18.00;99.90;;;;;;5076783;28;20168;-41
2022/07/29 02:29:06;;;;;;;4.17;1.43;;;18.00;99.90;;;;;;5076385;28;20152;-39
2022/07/29 02:31:35;;;;;;;3.27;1.30;;;18.10;99.90;;;;;;5074612;28;20253;-40
2022/07/29 02:34:04;;;;;;;3.67;1.20;;;18.00;99.90;;;;;;5073867;28;20176;-40
2022/07/29 02:36:32;;;;;;;3.13;1.43;;;18.00;99.90;;;;;;5073813;28;20206;-40
2022/07/29 02:39:00;;;;;;;7.20;1.40;;;17.90;99.90;;;;;;5072778;28;20187;-37
2022/07/29 02:41:40;;;;;;;6.47;1.43;;;18.00;99.90;;;;;;5073674;28;20195;-40
2022/07/29 02:44:11;;;;;;;7.03;1.90;;;17.90;99.90;;;;;;5073923;28;20172;-40
2022/07/29 02:46:41;;;;;;;8.77;1.40;;;17.80;99.90;;;;;;5073661;28;20627;-38
2022/07/29 02:49:18;;;;;;;4.23;1.20;;;17.40;99.90;;;;;;5073942;28;20163;-41
2022/07/29 02:52:07;;;;;;;3.87;1.50;;;17.00;99.90;;;;;;5074037;28;20156;-40
2022/07/29 02:54:42;;;;;;;7.23;1.50;;;16.80;99.90;;;;;;5073603;28;20515;-39
2022/07/29 02:57:42;;;;;;;4.30;1.43;;;16.80;99.90;;;;;;5073835;28;20240;-40
2022/07/29 03:00:09;;;;;;;4.07;1.50;;;16.70;99.90;;;;;;5073421;28;20653;-40
2022/07/29 03:02:42;;;;;;;2.93;1.47;;;16.70;99.90;;;;;;5073384;28;20188;-39
2022/07/29 03:05:10;;;;;;;4.70;1.23;;;16.60;99.90;;;;;;5073411;28;20176;-40
2022/07/29 03:07:38;;;;;;;3.50;1.20;;;16.50;99.90;;;;;;5072177;28;20175;-40
2022/07/29 03:10:06;;;;;;;4.43;1.43;;;16.50;99.90;;;;;;5073593;28;20274;-39
2022/07/29 03:12:32;;;;;;;6.53;1.60;;;16.50;99.90;;;;;;5073688;28;20186;-39
2022/07/29 03:15:00;;;;;;;2.87;1.37;;;16.40;99.90;;;;;;5073469;28;20199;-40
2022/07/29 03:17:26;;;;;;;2.87;1.20;;;16.40;99.90;;;;;;5073403;28;20163;-39
2022/07/29 03:19:52;;;;;;;6.47;1.50;;;16.30;99.90;;;;;;5073499;28;20199;-40
2022/07/29 03:22:18;;;;;;;2.77;1.20;;;16.30;99.90;;;;;;5071781;28;20610;-40
2022/07/29 03:24:44;;;;;;;12.47;2.00;;;16.30;99.90;;;;;;5073782;28;20224;-41
2022/07/29 03:27:09;;;;;;;3.00;1.20;;;16.30;99.90;;;;;;5073205;28;20171;-40
2022/07/29 03:29:36;;;;;;;2.70;1.30;;;16.20;99.90;;;;;;5073000;28;20746;-39
2022/07/29 03:32:04;;;;;;;1.73;1.10;;;16.20;99.90;;;;;;5073163;28;20223;-41
2022/07/29 03:34:29;;;;;;;2.23;1.33;;;16.10;99.90;;;;;;5073149;28;20184;-40
2022/07/29 03:36:55;;;;;;;2.70;1.57;;;16.10;99.90;;;;;;5073514;28;20596;-40
2022/07/29 03:39:25;;;;;;;3.13;1.40;;;16.10;99.90;;;;;;5073248;28;20187;-40
2022/07/29 03:41:55;;;;;;;4.77;1.50;;;16.10;99.90;;;;;;5073131;28;20233;-39
2022/07/29 03:44:22;;;;;;;4.30;1.63;;;16.00;99.90;;;;;;5073307;28;20171;-39
2022/07/29 03:46:50;;;;;;;4.30;1.43;;;15.90;99.90;;;;;;5073310;28;20167;-40
2022/07/29 03:49:18;;;;;;;4.67;1.63;;;15.90;99.90;;;;;;5074371;28;20172;-39
2022/07/29 03:51:45;;;;;;;5.30;1.70;;;15.90;99.90;;;;;;5073937;28;20176;-38
2022/07/29 03:54:12;;;;;;;6.97;1.50;;;15.80;99.90;;;;;;5073771;28;20636;-39
2022/07/29 03:56:41;;;;;;;5.00;1.70;;;15.80;99.90;;;;;;5072991;28;20195;-41
2022/07/29 03:59:08;;;;;;;5.47;1.70;;;15.80;99.90;;;;;;5073651;28;20176;-39
2022/07/29 04:01:34;;;;;;;5.33;1.90;;;15.80;99.90;;;;;;5071473;28;20238;-40
2022/07/29 04:04:01;;;;;;;4.33;1.77;;;15.80;99.90;;;;;;5072982;28;20180;-38
2022/07/29 04:06:26;;;;;;;6.07;2.13;;;15.70;99.90;;;;;;5073259;28;20218;-40
2022/07/29 04:08:52;;;;;;;4.40;2.07;;;15.80;99.90;;;;;;5072873;28;20211;-41
2022/07/29 04:11:18;;;;;;;4.93;2.23;;;15.70;99.90;;;;;;5072957;28;20214;-40
2022/07/29 04:13:44;;;;;;;4.13;2.03;;;15.70;99.90;;;;;;5072937;28;20187;-40
2022/07/29 04:16:09;;;;;;;2.20;1.73;;;15.70;99.90;;;;;;5072733;28;20548;-40
2022/07/29 04:18:35;;;;;;;3.07;1.60;;;15.70;99.90;;;;;;5071429;28;20179;-39
2022/07/29 04:21:01;;;;;;;4.30;2.40;;;15.70;99.90;;;;;;5072468;28;20218;-39
2022/07/29 04:23:29;;;;;;;4.27;1.57;;;15.60;99.90;;;;;;5075851;28;20294;-41
2022/07/29 04:25:54;;;;;;;4.27;1.63;;;15.60;99.90;;;;;;5076341;28;20607;-41
2022/07/29 04:28:20;;;;;;;5.03;2.23;;;15.50;99.90;;;;;;5076227;28;20206;-40
2022/07/29 04:30:45;;;;;;;6.00;2.10;;;15.50;99.90;;;;;;5075244;28;20616;-39
2022/07/29 04:33:11;;;;;;;6.73;2.10;;;15.50;99.90;;;;;;5076693;28;20180;-40
2022/07/29 04:35:37;;;;;;;6.20;2.20;;;15.50;99.90;;;;;;5074907;28;20188;-39
2022/07/29 04:38:04;;;;;;;5.13;2.30;;;15.40;99.90;;;;;;5076143;28;20175;-40
2022/07/29 04:40:32;;;;;;;4.53;2.50;;;15.40;99.90;;;;;;5076107;28;20211;-40
2022/07/29 04:42:58;;;;;;;7.57;2.57;;;15.40;99.90;;;;;;5076163;28;20215;-41
2022/07/29 04:45:24;;;;;;;3.60;1.97;;;15.40;99.90;;;;;;5076197;28;20180;-40
2022/07/29 04:47:50;;;;;;;2.77;1.97;;;15.40;99.90;;;;;;5076174;28;20249;-39
2022/07/29 04:50:16;;;;;;;8.60;3.23;;;15.40;99.90;;;;;;5076100;28;20196;-40
2022/07/29 04:52:42;;;;;;;4.43;2.10;;;15.40;99.90;;;;;;5076114;28;20194;-40
2022/07/29 04:55:08;;;;;;;8.50;2.47;;;15.50;99.90;;;;;;5075944;28;20619;-40
2022/07/29 04:57:33;;;;;;;7.90;1.90;;;15.50;99.90;;;;;;5076472;28;20236;-40
2022/07/29 04:59:59;;;;;;;4.70;2.17;;;15.50;99.90;;;;;;5075587;28;20195;-40
2022/07/29 05:02:25;;;;;;;3.77;2.43;;;15.50;99.90;;;;;;5075670;28;20627;-41
2022/07/29 05:04:51;;;;;;;7.53;2.77;;;15.60;99.90;;;;;;5075896;28;20187;-40
2022/07/29 05:07:16;;;;;;;4.90;2.20;;;15.60;99.90;;;;;;5075719;28;20233;-39
2022/07/29 05:09:42;;;;;;;2.87;2.23;;;15.60;99.90;;;;;;5075868;28;20191;-39
2022/07/29 05:12:08;;;;;;;5.50;2.27;;;15.60;99.90;;;;;;5076141;28;20190;-40
2022/07/29 05:14:33;;;;;;;3.90;1.93;;;15.60;99.90;;;;;;5076727;28;20187;-38
2022/07/29 05:16:59;;;;;;;5.20;2.23;;;15.70;99.90;;;;;;5076290;28;20210;-39
2022/07/29 05:19:24;;;;;;;5.33;2.07;;;15.70;99.90;;;;;;5076475;28;20211;-39
2022/07/29 05:21:50;;;;;;;3.93;2.27;;;15.70;99.90;;;;;;5075133;28;20274;-39
2022/07/29 05:24:16;;;;;;;5.50;2.40;;;15.80;99.90;;;;;;5075168;28;20203;-40
2022/07/29 05:26:41;;;;;;;3.90;2.10;;;15.70;99.90;;;;;;5075043;28;20179;-40
2022/07/29 05:29:07;;;;;;;6.00;2.10;;;15.80;99.90;;;;;;5075151;28;20179;-38
2022/07/29 05:31:33;;;;;;;4.83;2.20;;;15.80;99.90;;;;;;5075352;28;20195;-38
2022/07/29 05:33:59;;;;;;;3.83;1.70;;;15.90;99.90;;;;;;5074554;28;20176;-41
2022/07/29 05:36:25;;;;;;;3.20;1.73;;;15.90;99.90;;;;;;5075405;28;20180;-41
2022/07/29 05:38:51;;;;;;;3.00;1.90;;;16.00;99.90;;;;;;5075109;28;20187;-40
2022/07/29 05:41:20;;;;;;;6.13;2.23;;;16.00;99.90;;;;;;5074708;28;20195;-41
2022/07/29 05:43:46;;;;;;;3.00;1.97;;;16.00;99.90;;;;;;5076664;28;20649;-44
2022/07/29 05:46:13;;;;;;;4.37;2.53;;;16.00;99.90;;;;;;5076123;28;20203;-43
2022/07/29 05:48:39;;;;;;;4.60;2.30;;;16.00;99.90;;;;;;5074736;28;20182;-45
2022/07/29 05:51:05;;;;;;;3.67;1.90;;;16.00;99.90;;;;;;5076008;28;20195;-42
2022/07/29 05:53:31;;;;;;;3.30;1.80;;;16.00;99.90;;;;;;5075839;28;20180;-44
2022/07/29 05:55:56;;;;;;;3.27;1.83;;;16.10;99.90;;;;;;5076562;28;20191;-45
2022/07/29 05:58:22;;;;;;;7.10;2.33;;;16.10;99.90;;;;;;5075953;28;20186;-43
2022/07/29 06:00:47;;;;;;;4.40;2.23;;;16.10;99.90;;;;;;5075081;28;20568;-44
2022/07/29 06:03:13;;;;;;;5.17;2.10;;;16.10;99.90;;;;;;5076113;28;20218;-44
2022/07/29 06:05:39;;;;;;;7.37;3.00;;;16.10;99.90;;;;;;5075101;28;20620;-44
2022/07/29 06:08:08;;;;;;;6.37;2.57;;;16.10;99.90;;;;;;5074897;28;20517;-45
2022/07/29 06:10:37;;;;;;;5.77;2.47;;;16.10;99.90;;;;;;5075442;28;20253;-45
2022/07/29 06:13:02;;;;;;;3.17;2.87;;;16.00;99.90;;;;;;5074923;28;20184;-44
2022/07/29 06:18:50;;;;;;;5.87;2.00;;;16.00;99.90;;;;;;5075864;28;20531;-44
2022/07/29 06:21:16;;;;;;;3.53;2.20;;;16.00;99.90;;;;;;5075199;28;20207;-43
2022/07/29 06:23:42;;;;;;;7.53;2.53;;;16.00;99.90;;;;;;5075292;28;20254;-43
2022/07/29 06:26:08;;;;;;;5.47;2.40;;;15.90;99.90;;;;;;5074908;28;20176;-42
2022/07/29 06:28:34;;;;;;;3.87;2.30;;;15.90;99.90;;;;;;5075496;28;20304;-42
2022/07/29 06:30:59;;;;;;;8.77;2.40;;;15.90;99.90;;;;;;5074892;28;20191;-42
2022/07/29 06:33:25;;;;;;;6.77;2.57;;;15.90;99.90;;;;;;5074920;28;20586;-44
2022/07/29 06:35:51;;;;;;;2.97;2.03;;;15.90;99.90;;;;;;5074676;28;20175;-43
2022/07/29 06:38:17;;;;;;;5.80;2.27;;;15.90;99.90;;;;;;5074749;28;20187;-45
2022/07/29 06:41:02;;;;;;;8.93;2.67;;;15.90;99.90;;;;;;5073184;28;20682;-42
2022/07/29 06:43:33;;;;;;;3.87;2.30;;;16.00;99.90;;;;;;5074590;28;20670;-43
2022/07/29 06:46:06;;;;;;;6.57;3.00;;;15.90;99.90;;;;;;5074377;28;20216;-44
2022/07/29 06:48:33;;;;;;;5.73;2.53;;;15.90;99.90;;;;;;5074844;28;20168;-43
2022/07/29 06:50:59;;;;;;;10.73;2.60;;;15.90;99.90;;;;;;5075001;28;20219;-45
2022/07/29 06:53:25;;;;;;;7.03;3.07;;;16.00;99.90;;;;;;5074703;28;20270;-43
2022/07/29 06:55:51;;;;;;;7.70;2.90;;;16.00;99.90;;;;;;5074221;28;20211;-39
2022/07/29 06:58:20;;;;;;;5.23;2.63;;;16.00;99.90;;;;;;5074388;28;20244;-39
2022/07/29 07:00:48;;;;;;;5.17;2.10;;;16.00;99.90;;;;;;5074058;28;20660;-44
2022/07/29 07:03:16;;;;;;;6.90;3.03;;;16.10;99.90;;;;;;5074611;28;20229;-43
2022/07/29 07:05:42;;;;;;;7.03;2.90;;;16.10;99.90;;;;;;5075034;28;20183;-43
2022/07/29 07:08:09;;;;;;;6.13;2.93;;;16.20;99.90;;;;;;5074519;28;20172;-44
2022/07/29 07:10:34;;;;;;;11.77;2.80;;;16.30;99.90;;;;;;5074349;28;20206;-43
2022/07/29 07:13:01;;;;;;;5.23;2.70;;;16.30;99.90;;;;;;5074779;28;20180;-43
2022/07/29 07:15:27;;;;;;;9.30;2.97;;;16.50;99.90;;;;;;5076692;28;20203;-42
2022/07/29 07:17:53;;;;;;;8.83;2.97;;;16.50;99.90;;;;;;5086913;22;20304;-43
2022/07/29 07:20:49;;;;;;;7.27;2.90;;;16.50;99.90;;;;;;5073732;28;20223;-42
2022/07/29 07:23:15;;;;;;;7.27;2.83;;;16.60;99.90;;;;;;5073670;28;20229;-41
2022/07/29 07:25:41;;;;;;;4.83;2.43;;;16.60;99.90;;;;;;5073275;28;20714;-42
2022/07/29 07:28:07;;;;;;;7.53;2.80;;;16.70;99.90;;;;;;5073499;28;20228;-42
2022/07/29 07:30:32;;;;;;;8.40;3.53;;;16.70;99.90;;;;;;5073842;28;20195;-41
2022/07/29 07:32:59;;;;;;;8.50;3.77;;;16.80;99.90;;;;;;5073671;28;20168;-41
2022/07/29 07:35:27;;;;;;;6.60;3.20;;;16.80;99.90;;;;;;5073288;28;20312;-44
2022/07/29 07:37:53;;;;;;;7.37;3.63;;;16.90;99.90;;;;;;5073283;28;20172;-42
2022/07/29 07:40:19;;;;;;;15.27;2.90;;;16.90;99.90;;;;;;5073105;28;20210;-43
2022/07/29 07:42:44;;;;;;;4.83;3.00;;;17.00;99.90;;;;;;5073109;28;20557;-41
2022/07/29 07:45:11;;;;;;;9.30;2.53;;;17.00;99.90;;;;;;5073594;28;20246;-42
2022/07/29 07:47:37;;;;;;;6.73;3.30;;;17.10;99.90;;;;;;5073003;28;20750;-45
2022/07/29 07:50:05;;;;;;;6.20;3.20;;;17.00;99.90;;;;;;5073582;28;20221;-43
2022/07/29 07:52:30;;;;;;;9.10;3.20;;;17.10;99.90;;;;;;5073336;28;20183;-40
2022/07/29 07:54:56;;;;;;;7.53;3.10;;;17.00;99.90;;;;;;5073100;28;20182;-44
2022/07/29 07:57:22;;;;;;;5.53;3.00;;;17.10;99.90;;;;;;5073956;28;20176;-40
2022/07/29 07:59:47;;;;;;;8.83;3.10;;;17.20;99.90;;;;;;5077057;28;20210;-42
2022/07/29 08:02:13;;;;;;;8.03;3.03;;;17.20;99.90;;;;;;5076843;28;20274;-42
2022/07/29 08:04:40;;;;;;;8.87;3.63;;;17.30;99.90;;;;;;5076985;28;20172;-41
2022/07/29 08:07:07;;;;;;;7.03;3.20;;;17.40;99.90;;;;;;5076676;28;20176;-43
2022/07/29 08:09:34;;;;;;;7.37;2.90;;;17.40;99.90;;;;;;5076592;28;20168;-44
2022/07/29 08:12:03;;;;;;;15.70;4.90;;;17.50;99.90;;;;;;5076566;28;20168;-41
2022/07/29 08:14:30;;;;;;;8.00;3.80;;;17.70;99.90;;;;;;5076483;28;20644;-41
2022/07/29 08:16:55;;;;;;;5.70;3.00;;;17.80;99.90;;;;;;5076229;28;20264;-41
2022/07/29 08:19:21;;;;;;;7.00;3.30;;;18.00;99.90;;;;;;5076849;28;20206;-40
2022/07/29 08:21:47;;;;;;;6.07;2.60;;;18.00;99.90;;;;;;5076679;28;20195;-40
2022/07/29 08:24:58;;;;;;;4.77;2.57;;;18.20;99.90;;;;;;5076344;28;20168;-42
2022/07/29 08:26:58;;;;;;;5.63;2.97;;;18.40;99.90;;;;;;5069243;28;20194;-41
2022/07/29 08:29:24;;;;;;;11.80;3.20;;;18.70;99.90;;;;;;5076405;28;20250;-41
2022/07/29 08:31:50;;;;;;;5.90;2.83;;;19.00;99.90;;;;;;5076448;28;20273;-42
2022/07/29 08:34:15;;;;;;;6.07;3.00;;;19.10;99.90;;;;;;5076168;28;20186;-42
2022/07/29 08:36:41;;;;;;;8.47;3.30;;;19.30;99.90;;;;;;5076172;28;20542;-41
2022/07/29 08:39:07;;;;;;;7.90;2.87;;;19.30;99.90;;;;;;5076632;28;20263;-44
2022/07/29 08:41:33;;;;;;;7.93;3.00;;;19.40;99.90;;;;;;5076155;28;20204;-42
2022/07/29 08:43:58;;;;;;;6.20;2.97;;;19.50;99.90;;;;;;5074688;28;20176;-41
2022/07/29 08:46:24;;;;;;;3.77;3.13;;;19.50;99.90;;;;;;5074656;28;20175;-43
2022/07/29 08:48:50;;;;;;;9.47;3.37;;;19.80;99.90;;;;;;5076159;28;20175;-40
2022/07/29 08:51:20;;;;;;;6.00;3.17;;;20.00;99.90;;;;;;5075812;28;20204;-41
2022/07/29 08:53:50;;;;;;;6.00;3.03;;;20.20;99.90;;;;;;5075940;28;20655;-41
2022/07/29 08:56:17;;;;;;;7.73;2.50;;;20.30;99.90;;;;;;5075933;28;20175;-43
2022/07/29 08:58:44;;;;;;;5.83;2.53;;;20.30;99.90;;;;;;5076113;28;20186;-43
2022/07/29 09:01:13;;;;;;;4.77;2.10;;;20.40;99.90;;;;;;5074433;28;20676;-40
2022/07/29 09:03:41;;;;;;;5.60;2.63;;;20.60;99.90;;;;;;5075853;28;20206;-43
2022/07/29 09:06:07;;;;;;;5.00;2.30;;;20.60;99.90;;;;;;5075834;28;20184;-42
2022/07/29 09:08:33;;;;;;;4.93;2.17;;;20.50;99.90;;;;;;5075805;28;20609;-43
2022/07/29 09:11:01;;;;;;;10.60;3.07;;;20.40;99.90;;;;;;5074283;28;20253;-43
2022/07/29 09:13:27;;;;;;;6.03;2.53;;;20.50;99.90;;;;;;5076176;28;20634;-44
2022/07/29 09:15:52;;;;;;;6.63;2.17;;;20.50;99.90;;;;;;5075426;28;20266;-42
2022/07/29 09:18:40;;;;;;;6.03;2.20;;;20.60;99.90;;;;;;5075372;28;20196;-41
2022/07/29 09:24:08;;;;;;;7.23;2.23;;;20.60;99.90;;;;;;5075497;28;20171;-42
2022/07/29 09:26:40;;;;;;;3.93;2.23;;;20.40;99.90;;;;;;5075512;28;20174;-41
2022/07/29 09:29:35;;;;;;;4.10;2.03;;;20.50;99.90;;;;;;5075335;28;20719;-42
2022/07/29 09:32:02;;;;;;;5.30;2.43;;;20.60;99.90;;;;;;5066423;28;20196;-43
2022/07/29 09:34:31;;;;;;;4.70;2.50;;;20.70;99.90;;;;;;5075352;28;20190;-44
2022/07/29 09:36:57;;;;;;;3.87;1.87;;;20.80;99.90;;;;;;5075135;28;20228;-43
2022/07/29 09:39:31;;;;;;;3.67;2.53;;;20.90;99.90;;;;;;5074845;28;20266;-41
2022/07/29 09:41:59;;;;;;;6.90;2.37;;;20.90;99.90;;;;;;5073597;28;20203;-45
2022/07/29 09:44:25;;;;;;;4.00;2.30;;;20.90;99.90;;;;;;5075193;28;20190;-43
2022/07/29 09:47:05;;;;;;;5.50;2.30;;;20.90;99.90;;;;;;5075065;28;20590;-43
2022/07/29 09:49:32;;;;;;;5.10;2.50;;;20.90;99.90;;;;;;5075134;28;20167;-43
2022/07/29 09:52:07;;;;;;;12.57;2.33;;;20.90;99.90;;;;;;5074784;28;20195;-43
2022/07/29 09:54:38;;;;;;;7.60;2.40;;;20.90;99.90;;;;;;5074942;28;20179;-42
2022/07/29 09:57:06;;;;;;;4.73;2.53;;;20.90;99.90;;;;;;5075308;28;20172;-44
2022/07/29 09:59:32;;;;;;;2.73;1.70;;;20.90;99.90;;;;;;5075211;28;20262;-42
2022/07/29 10:01:58;;;;;;;6.03;2.20;;;21.00;99.90;;;;;;5074804;28;20297;-43
2022/07/29 10:04:35;;;;;;;4.50;2.30;;;21.10;99.90;;;;;;5075130;28;20720;-44
2022/07/29 10:07:04;;;;;;;5.07;2.53;;;21.20;99.90;;;;;;5075857;28;20646;-44
2022/07/29 10:09:30;;;;;;;8.03;2.20;;;21.20;99.90;;;;;;5075079;28;20540;-44
2022/07/29 10:12:23;;;;;;;3.10;2.50;;;21.20;99.90;;;;;;5075549;28;20214;-44
2022/07/29 10:14:49;;;;;;;4.17;1.70;;;21.30;99.90;;;;;;5073044;28;20194;-44
2022/07/29 10:17:16;;;;;;;3.60;2.10;;;21.30;99.90;;;;;;5075026;28;20199;-45
2022/07/29 10:19:42;;;;;;;4.23;2.10;;;21.40;99.90;;;;;;5072912;28;20567;-45
2022/07/29 10:22:09;;;;;;;4.67;2.00;;;21.50;99.90;;;;;;5074939;28;20195;-43
2022/07/29 10:24:38;;;;;;;3.97;1.97;;;21.60;99.90;;;;;;5074777;28;20179;-44
2022/07/29 10:27:05;;;;;;;4.37;2.00;;;21.60;99.90;;;;;;5074608;28;20536;-44
2022/07/29 10:29:31;;;;;;;4.90;2.43;;;21.70;99.90;;;;;;5074631;28;20614;-44
2022/07/29 10:32:34;;;;;;;4.07;2.77;;;21.80;99.90;;;;;;5074621;28;20171;-44
2022/07/29 10:35:38;;;;;;;4.63;2.77;;;21.80;99.90;;;;;;5074231;28;20198;-44
2022/07/29 10:38:11;;;;;;;5.40;2.40;;;21.90;99.90;;;;;;5052975;28;20183;-44
2022/07/29 10:43:37;;;;;;;8.40;3.30;;;22.10;99.90;;;;;;5074368;28;20755;-44
2022/07/29 10:46:04;;;;;;;8.53;3.17;;;22.30;99.90;;;;;;5072949;28;20195;-42
2022/07/29 10:48:30;;;;;;;7.03;3.20;;;22.20;99.90;;;;;;5074091;28;20179;-45
2022/07/29 10:51:00;;;;;;;6.70;2.90;;;22.10;99.90;;;;;;5073837;28;20206;-44
2022/07/29 10:53:45;;;;;;;5.60;2.90;;;22.10;99.90;;;;;;5072589;28;20179;-43
2022/07/29 10:56:29;;;;;;;5.47;3.37;;;22.20;99.90;;;;;;5073929;28;20617;-41
2022/07/29 10:59:20;;;;;;;8.47;3.10;;;22.20;99.90;;;;;;5073478;28;20193;-44
2022/07/29 11:01:47;;;;;;;5.37;3.00;;;22.20;99.90;;;;;;5073824;28;20227;-43
2022/07/29 11:04:14;;;;;;;5.90;2.70;;;22.20;99.90;;;;;;5073602;28;20263;-42
2022/07/29 11:07:00;;;;;;;5.67;3.63;;;22.40;99.90;;;;;;5073567;28;20171;-42
2022/07/29 11:09:26;;;;;;;5.73;3.03;;;22.40;99.90;;;;;;5066029;28;20667;-43
2022/07/29 11:11:52;;;;;;;9.63;3.10;;;22.50;99.90;;;;;;5073696;28;20203;-42
2022/07/29 11:14:52;;;;;;;6.40;3.60;;;22.60;99.90;;;;;;5073611;28;20188;-42
2022/07/29 11:17:18;;;;;;;5.97;2.87;;;22.70;99.90;;;;;;5073483;28;20188;-41
2022/07/29 11:19:44;;;;;;;5.33;3.00;;;22.80;99.90;;;;;;5073759;28;20211;-42
2022/07/29 11:22:10;;;;;;;10.57;3.40;;;22.90;99.90;;;;;;5073276;28;20195;-43
2022/07/29 11:24:36;;;;;;;8.53;3.20;;;23.00;99.90;;;;;;5073311;28;20186;-47
2022/07/29 11:27:09;;;;;;;5.57;2.80;;;23.10;99.90;;;;;;5073303;28;20178;-43
2022/07/29 11:29:48;;;;;;;7.00;3.00;;;23.00;99.90;;;;;;5073185;28;20336;-42
2022/07/29 11:32:18;;;;;;;10.70;3.33;;;23.10;99.90;;;;;;5075837;28;20155;-42
2022/07/29 11:34:44;;;;;;;3.97;2.63;;;23.00;99.90;;;;;;5077636;28;20258;-44
2022/07/29 11:37:10;;;;;;;5.40;2.70;;;23.10;99.90;;;;;;5077276;28;20183;-44
2022/07/29 11:39:38;;;;;;;7.33;2.80;;;23.30;99.90;;;;;;5077390;28;20548;-42
2022/07/29 11:42:16;;;;;;;10.80;3.30;;;23.40;99.90;;;;;;5077129;28;20249;-42
2022/07/29 11:45:13;;;;;;;6.67;3.23;;;23.40;99.90;;;;;;5077265;28;20178;-43
2022/07/29 11:47:41;;;;;;;6.23;2.90;;;23.50;99.90;;;;;;5077450;28;20235;-41
2022/07/29 11:50:10;;;;;;;5.93;3.00;;;23.50;99.90;;;;;;5077021;28;20203;-43
2022/07/29 11:52:45;;;;;;;7.60;3.10;;;23.40;99.90;;;;;;5077297;28;20171;-43
2022/07/29 11:55:13;;;;;;;7.67;3.67;;;23.40;99.90;;;;;;5077043;28;20523;-43
2022/07/29 11:57:47;;;;;;;5.40;2.97;;;23.50;99.90;;;;;;5076967;28;20182;-43
2022/07/29 12:00:39;;;;;;;6.27;2.67;;;23.60;99.90;;;;;;5077032;28;20605;-42
2022/07/29 12:03:08;;;;;;;8.87;2.93;;;23.60;99.90;;;;;;5077222;28;20206;-42
2022/07/29 12:05:45;;;;;;;7.70;2.87;;;23.80;99.90;;;;;;5077316;28;20184;-42
2022/07/29 12:08:18;;;;;;;4.27;2.60;;;23.70;99.90;;;;;;5076857;28;20180;-44
2022/07/29 12:10:45;;;;;;;4.13;2.97;;;23.70;99.90;;;;;;5076814;28;20217;-44
2022/07/29 12:13:12;;;;;;;3.07;2.33;;;23.70;99.90;;;;;;5076692;28;20175;-44
2022/07/29 12:15:38;;;;;;;5.40;2.23;;;23.70;99.90;;;;;;5076687;28;20263;-44
2022/07/29 12:18:16;;;;;;;4.53;2.20;;;23.80;99.90;;;;;;5076905;28;20593;-43
2022/07/29 12:20:42;;;;;;;4.53;2.30;;;23.80;99.90;;;;;;5076850;28;20226;-43
2022/07/29 12:23:11;;;;;;;9.17;2.77;;;23.90;99.90;;;;;;5075323;28;20639;-43
2022/07/29 12:25:37;;;;;;;5.97;2.73;;;24.10;99.90;;;;;;5076408;28;20178;-44
2022/07/29 12:28:05;;;;;;;4.43;2.43;;;24.00;99.90;;;;;;5077035;28;20259;-43
2022/07/29 12:30:40;;;;;;;3.70;2.37;;;24.00;99.90;;;;;;5076563;28;20249;-42
2022/07/29 12:33:18;;;;;;;5.03;2.33;;;24.20;99.90;;;;;;5076334;28;20171;-43
2022/07/29 12:35:47;;;;;;;3.90;2.53;;;24.40;99.90;;;;;;5076625;28;20654;-43
2022/07/29 12:38:13;;;;;;;4.37;2.43;;;24.50;99.90;;;;;;5076080;28;20176;-43
2022/07/29 12:40:39;;;;;;;6.13;2.53;;;24.70;99.90;;;;;;5076164;28;20210;-42
2022/07/29 12:43:11;;;;;;;4.23;2.17;;;24.80;99.90;;;;;;5075741;28;20200;-42
2022/07/29 12:45:38;;;;;;;2.57;1.80;;;24.80;99.90;;;;;;5076291;28;20164;-43
2022/07/29 12:48:06;;;;;;;7.60;2.20;;;24.80;99.90;;;;;;5076044;28;20175;-43
2022/07/29 12:50:32;;;;;;;3.07;2.30;;;24.90;99.90;;;;;;5076200;28;20305;-44
2022/07/29 12:53:12;;;;;;;3.77;2.40;;;24.80;99.90;;;;;;5076200;28;20195;-43
2022/07/29 12:55:48;;;;;;;4.30;2.53;;;24.80;99.90;;;;;;5074707;28;20325;-43
2022/07/29 12:58:26;;;;;;;4.40;2.67;;;24.80;99.90;;;;;;5076401;28;20156;-43
2022/07/29 13:01:05;;;;;;;13.93;2.63;;;24.70;99.90;;;;;;5076108;28;20187;-42
2022/07/29 13:03:46;;;;;;;5.03;2.63;;;24.80;99.90;;;;;;5076004;28;20191;-43
2022/07/29 13:06:42;;;;;;;4.55;2.50;;;24.80;99.90;;;;;;5076281;28;20233;-43
2022/07/29 13:09:19;;;;;;;3.92;1.92;;;25.00;99.90;;;;;;5075914;28;20172;-43
2022/07/29 13:11:47;;;;;;;4.35;2.42;;;25.20;99.90;;;;;;5076276;28;20176;-44